createdAt,value
2018-12-24T00:00:06.292Z,7.03
2018-12-24T00:02:34.635Z,8.30
2018-12-24T00:05:03.013Z,7.70
2018-12-24T00:07:31.392Z,6.63
2018-12-24T00:09:59.676Z,7.33
2018-12-24T00:12:27.949Z,8.83
2018-12-24T00:14:56.283Z,6.37
2018-12-24T00:17:24.581Z,6.37
2018-12-24T00:19:52.856Z,8.00
2018-12-24T00:22:21.177Z,6.23
2018-12-24T00:24:49.475Z,8.13
2018-12-24T00:27:17.762Z,8.03
2018-12-24T00:29:46.065Z,6.97
2018-12-24T00:32:14.407Z,6.50
2018-12-24T00:34:42.677Z,7.13
2018-12-24T00:37:10.962Z,9.93
2018-12-24T00:39:39.244Z,7.87
2018-12-24T00:42:15.611Z,5.10
2018-12-24T00:44:37.535Z,5.00
2018-12-24T00:47:05.845Z,4.77
2018-12-24T00:49:34.146Z,6.77
2018-12-24T00:52:02.415Z,6.77
2018-12-24T00:54:30.700Z,6.97
2018-12-24T00:56:59.236Z,11.30
2018-12-24T00:59:27.520Z,14.63
2018-12-24T01:01:55.843Z,14.63
2018-12-24T01:04:24.157Z,14.57
2018-12-24T01:06:52.452Z,13.67
2018-12-24T01:09:20.732Z,15.27
2018-12-24T01:11:49.040Z,14.57
2018-12-24T01:14:17.322Z,13.90
2018-12-24T01:16:45.608Z,12.30
2018-12-24T01:19:13.925Z,13.50
2018-12-24T01:21:42.247Z,9.73
2018-12-24T01:24:10.549Z,10.87
2018-12-24T01:26:38.829Z,9.20
2018-12-24T01:29:07.148Z,7.40
2018-12-24T01:31:35.452Z,7.23
2018-12-24T01:34:03.729Z,8.27
2018-12-24T01:36:32.053Z,7.73
2018-12-24T01:39:00.348Z,8.67
2018-12-24T01:41:28.671Z,9.07
2018-12-24T01:43:57.016Z,7.47
2018-12-24T01:46:25.413Z,8.27
2018-12-24T01:48:53.754Z,7.93
2018-12-24T01:51:22.025Z,8.00
2018-12-24T01:53:50.334Z,6.77
2018-12-24T01:56:18.654Z,6.63
2018-12-24T01:58:46.920Z,7.07
2018-12-24T02:01:15.243Z,6.20
2018-12-24T02:03:43.508Z,7.67
2018-12-24T02:06:11.793Z,7.97
2018-12-24T02:08:40.109Z,6.67
2018-12-24T02:11:08.468Z,6.27
2018-12-24T02:13:36.785Z,7.27
2018-12-24T02:16:05.057Z,8.80
2018-12-24T02:18:33.394Z,8.60
2018-12-24T02:21:01.667Z,10.87
2018-12-24T02:23:29.984Z,10.20
2018-12-24T02:25:58.269Z,9.43
2018-12-24T02:28:26.546Z,9.57
2018-12-24T02:30:54.910Z,12.77
2018-12-24T02:33:24.115Z,12.30
2018-12-24T02:35:52.438Z,13.50
2018-12-24T02:38:21.820Z,14.50
2018-12-24T02:40:50.112Z,22.67
2018-12-24T02:43:18.404Z,22.00
2018-12-24T02:45:46.728Z,22.63
2018-12-24T02:48:15.018Z,23.70
2018-12-24T02:50:43.344Z,24.37
2018-12-24T02:53:11.712Z,22.27
2018-12-24T02:55:40.025Z,23.00
2018-12-24T02:58:08.345Z,26.40
2018-12-24T03:00:36.652Z,22.77
2018-12-24T03:03:04.974Z,22.10
2018-12-24T03:05:33.312Z,19.67
2018-12-24T03:08:01.600Z,19.80
2018-12-24T03:10:29.888Z,22.37
2018-12-24T03:13:02.796Z,26.77
2018-12-24T03:15:28.177Z,26.73
2018-12-24T03:17:56.501Z,27.77
2018-12-24T03:20:24.848Z,29.37
2018-12-24T03:22:53.162Z,34.13
2018-12-24T03:25:21.503Z,31.10
2018-12-24T03:27:49.822Z,24.00
2018-12-24T03:30:18.215Z,24.10
2018-12-24T03:32:46.653Z,25.53
2018-12-24T03:35:15.009Z,22.77
2018-12-24T03:37:43.479Z,25.90
2018-12-24T03:40:12.697Z,31.40
2018-12-24T03:42:41.001Z,30.70
2018-12-24T03:45:09.330Z,36.47
2018-12-24T03:47:37.631Z,22.60
2018-12-24T03:50:05.963Z,23.73
2018-12-24T03:52:34.278Z,20.00
2018-12-24T03:55:02.600Z,22.10
2018-12-24T03:57:30.889Z,18.27
2018-12-24T03:59:59.201Z,22.30
2018-12-24T04:02:27.586Z,18.23
2018-12-24T04:04:55.904Z,17.07
2018-12-24T04:07:24.291Z,15.27
2018-12-24T04:09:52.673Z,14.20
2018-12-24T04:12:21.024Z,13.90
2018-12-24T04:14:49.310Z,11.93
2018-12-24T04:17:17.582Z,8.67
2018-12-24T04:19:45.876Z,8.90
2018-12-24T04:22:14.156Z,8.67
2018-12-24T04:24:42.466Z,8.23
2018-12-24T04:27:10.815Z,5.60
2018-12-24T04:29:39.123Z,4.00
2018-12-24T04:32:07.422Z,5.73
2018-12-24T04:34:35.705Z,4.73
2018-12-24T04:37:04.030Z,6.50
2018-12-24T04:39:32.398Z,5.43
2018-12-24T04:42:00.689Z,5.93
2018-12-24T04:44:28.955Z,5.93
2018-12-24T04:46:57.268Z,5.97
2018-12-24T04:49:25.589Z,5.40
2018-12-24T04:51:53.861Z,5.60
2018-12-24T04:54:22.186Z,7.40
2018-12-24T04:56:50.533Z,6.27
2018-12-24T04:59:18.834Z,5.77
2018-12-24T05:01:47.205Z,4.70
2018-12-24T05:04:15.525Z,8.00
2018-12-24T05:06:43.830Z,6.87
2018-12-24T05:09:12.109Z,5.13
2018-12-24T05:11:40.427Z,6.57
2018-12-24T05:14:08.709Z,6.17
2018-12-24T05:16:37.017Z,6.63
2018-12-24T05:19:05.296Z,8.30
2018-12-24T05:21:33.583Z,7.17
2018-12-24T05:24:01.860Z,5.13
2018-12-24T05:26:30.148Z,6.77
2018-12-24T05:28:58.424Z,5.03
2018-12-24T05:31:26.730Z,5.63
2018-12-24T05:33:55.030Z,5.73
2018-12-24T05:36:23.341Z,5.93
2018-12-24T05:38:51.626Z,5.47
2018-12-24T05:41:19.909Z,5.63
2018-12-24T05:43:49.526Z,6.20
2018-12-24T05:46:19.117Z,6.00
2018-12-24T05:48:47.420Z,5.10
2018-12-24T05:51:15.729Z,6.37
2018-12-24T05:53:44.054Z,5.57
2018-12-24T05:56:12.320Z,6.50
2018-12-24T05:58:40.600Z,5.83
2018-12-24T06:01:08.922Z,6.87
2018-12-24T06:03:37.217Z,6.53
2018-12-24T06:06:05.496Z,6.00
2018-12-24T06:08:33.781Z,8.60
2018-12-24T06:11:02.058Z,6.40
2018-12-24T06:13:30.369Z,4.53
2018-12-24T06:15:58.683Z,5.60
2018-12-24T06:18:27.062Z,5.37
2018-12-24T06:20:55.348Z,5.07
2018-12-24T06:23:23.626Z,6.40
2018-12-24T06:25:51.953Z,5.90
2018-12-24T06:28:20.229Z,5.80
2018-12-24T06:30:48.642Z,5.17
2018-12-24T06:33:17.021Z,4.60
2018-12-24T06:35:45.331Z,4.70
2018-12-24T06:38:13.649Z,5.23
2018-12-24T06:40:41.941Z,4.47
2018-12-24T06:43:10.257Z,4.03
2018-12-24T06:45:38.561Z,5.23
2018-12-24T06:48:06.873Z,4.13
2018-12-24T06:50:35.173Z,4.40
2018-12-24T06:53:03.504Z,4.10
2018-12-24T06:55:31.873Z,5.17
2018-12-24T06:58:00.164Z,4.70
2018-12-24T07:00:28.465Z,3.63
2018-12-24T07:02:56.742Z,3.77
2018-12-24T07:05:25.084Z,4.20
2018-12-24T07:07:53.384Z,2.90
2018-12-24T07:10:21.689Z,5.47
2018-12-24T07:12:50.015Z,3.70
2018-12-24T07:15:18.293Z,5.27
2018-12-24T07:17:47.548Z,4.03
2018-12-24T07:20:16.801Z,3.57
2018-12-24T07:22:45.111Z,5.33
2018-12-24T07:25:13.396Z,3.77
2018-12-24T07:27:41.797Z,4.97
2018-12-24T07:30:11.022Z,3.73
2018-12-24T07:32:39.332Z,4.87
2018-12-24T07:35:07.617Z,4.00
2018-12-24T07:37:35.929Z,4.67
2018-12-24T07:40:04.235Z,4.93
2018-12-24T07:42:32.573Z,4.17
2018-12-24T07:45:00.845Z,5.20
2018-12-24T07:47:30.042Z,3.50
2018-12-24T07:49:58.325Z,2.93
2018-12-24T07:52:26.685Z,2.60
2018-12-24T07:54:54.997Z,2.70
2018-12-24T07:57:23.277Z,3.67
2018-12-24T07:59:51.621Z,2.25
2018-12-24T08:02:19.897Z,3.00
2018-12-24T08:04:48.179Z,2.83
2018-12-24T08:07:16.487Z,4.70
2018-12-24T08:09:44.860Z,2.50
2018-12-24T08:12:13.140Z,2.50
2018-12-24T08:14:41.458Z,2.93
2018-12-24T08:17:09.804Z,3.93
2018-12-24T08:19:38.086Z,2.50
2018-12-24T08:22:06.376Z,1.97
2018-12-24T08:24:34.651Z,2.20
2018-12-24T08:27:03.013Z,2.17
2018-12-24T08:29:31.386Z,5.65
2018-12-24T08:31:59.759Z,3.80
2018-12-24T08:34:28.067Z,2.33
2018-12-24T08:36:56.365Z,3.90
2018-12-24T08:39:24.653Z,2.40
2018-12-24T08:41:52.966Z,2.80
2018-12-24T08:44:21.244Z,2.73
2018-12-24T08:46:49.516Z,3.97
2018-12-24T08:49:17.833Z,3.83
2018-12-24T08:51:46.141Z,3.23
2018-12-24T08:54:14.421Z,3.93
2018-12-24T08:56:42.751Z,3.77
2018-12-24T08:59:11.029Z,4.93
2018-12-24T09:01:39.320Z,2.10
2018-12-24T09:04:07.593Z,4.03
2018-12-24T09:06:36.836Z,4.40
2018-12-24T09:09:05.893Z,4.37
2018-12-24T09:11:34.176Z,5.30
2018-12-24T09:14:02.469Z,4.20
2018-12-24T09:16:30.756Z,3.10
2018-12-24T09:18:59.045Z,4.77
2018-12-24T09:21:27.320Z,4.70
2018-12-24T09:23:55.640Z,2.70
2018-12-24T09:26:23.996Z,3.77
2018-12-24T09:28:53.157Z,4.33
2018-12-24T09:31:21.433Z,4.33
2018-12-24T09:33:49.721Z,4.40
2018-12-24T09:36:18.948Z,3.70
2018-12-24T09:38:47.258Z,4.03
2018-12-24T09:41:15.565Z,5.87
2018-12-24T09:43:43.844Z,4.60
2018-12-24T09:46:12.157Z,6.20
2018-12-24T09:48:40.464Z,5.07
2018-12-24T09:51:08.745Z,5.97
2018-12-24T09:53:37.130Z,4.97
2018-12-24T09:56:05.465Z,4.83
2018-12-24T09:58:33.755Z,4.20
2018-12-24T10:01:02.145Z,5.23
2018-12-24T10:03:30.560Z,6.17
2018-12-24T10:05:59.949Z,4.70
2018-12-24T10:08:28.224Z,7.17
2018-12-24T10:10:56.551Z,4.10
2018-12-24T10:13:24.828Z,6.27
2018-12-24T10:15:53.237Z,4.80
2018-12-24T10:18:21.545Z,3.80
2018-12-24T10:20:49.820Z,6.33
2018-12-24T10:23:18.146Z,6.00
2018-12-24T10:25:47.304Z,4.90
2018-12-24T10:28:15.665Z,4.43
2018-12-24T10:30:43.969Z,4.00
2018-12-24T10:33:13.713Z,4.07
2018-12-24T10:35:42.005Z,3.20
2018-12-24T10:38:10.281Z,4.40
2018-12-24T10:40:38.958Z,4.60
2018-12-24T10:43:07.292Z,4.23
2018-12-24T10:45:35.565Z,3.77
2018-12-24T10:48:03.845Z,4.47
2018-12-24T10:50:32.166Z,4.73
2018-12-24T10:53:00.481Z,5.10
2018-12-24T10:55:28.787Z,3.47
2018-12-24T10:57:57.093Z,4.47
2018-12-24T11:00:25.371Z,4.57
2018-12-24T11:02:53.657Z,3.43
2018-12-24T11:05:21.929Z,5.50
2018-12-24T11:07:50.238Z,6.43
2018-12-24T11:10:18.509Z,5.97
2018-12-24T11:12:46.825Z,6.17
2018-12-24T11:15:15.220Z,5.80
2018-12-24T11:17:43.500Z,4.80
2018-12-24T11:20:12.745Z,5.87
2018-12-24T11:22:41.053Z,6.27
2018-12-24T11:25:09.413Z,6.87
2018-12-24T11:27:37.722Z,4.60
2018-12-24T11:30:06.393Z,7.37
2018-12-24T11:32:34.668Z,4.00
2018-12-24T11:35:02.957Z,5.40
2018-12-24T11:37:31.262Z,7.03
2018-12-24T11:39:59.551Z,5.00
2018-12-24T11:42:27.824Z,6.73
2018-12-24T11:44:56.095Z,7.97
2018-12-24T11:47:24.433Z,9.00
2018-12-24T11:49:52.705Z,7.83
2018-12-24T11:52:20.988Z,10.97
2018-12-24T11:54:49.276Z,4.80
2018-12-24T11:57:17.597Z,7.37
2018-12-24T11:59:46.829Z,9.63
2018-12-24T12:02:15.112Z,7.03
2018-12-24T12:04:43.413Z,5.43
2018-12-24T12:07:11.725Z,6.73
2018-12-24T12:09:40.046Z,7.40
2018-12-24T12:12:08.466Z,4.90
2018-12-24T12:14:36.742Z,6.37
2018-12-24T12:17:05.045Z,9.00
2018-12-24T12:19:33.328Z,6.90
2018-12-24T12:22:01.617Z,5.97
2018-12-24T12:24:30.853Z,6.43
2018-12-24T12:26:59.161Z,7.37
2018-12-24T12:29:27.453Z,6.97
2018-12-24T12:31:55.762Z,8.83
2018-12-24T12:34:24.079Z,6.63
2018-12-24T12:36:52.495Z,11.13
2018-12-24T12:39:20.861Z,10.20
2018-12-24T12:41:49.409Z,10.23
2018-12-24T12:44:17.709Z,9.23
2018-12-24T12:46:45.989Z,9.07
2018-12-24T12:49:14.401Z,6.20
2018-12-24T12:51:42.762Z,6.23
2018-12-24T12:54:11.090Z,11.60
2018-12-24T12:56:39.436Z,9.50
2018-12-24T12:59:07.720Z,9.00
2018-12-24T13:01:35.996Z,8.30
2018-12-24T13:04:04.306Z,6.30
2018-12-24T13:06:32.617Z,5.97
2018-12-24T13:09:00.918Z,3.90
2018-12-24T13:11:29.225Z,4.60
2018-12-24T13:13:58.429Z,4.50
2018-12-24T13:16:26.768Z,6.53
2018-12-24T13:18:55.132Z,6.30
2018-12-24T13:21:23.492Z,8.20
2018-12-24T13:23:51.811Z,6.17
2018-12-24T13:26:20.202Z,7.23
2018-12-24T13:28:49.389Z,4.20
2018-12-24T13:31:17.664Z,7.33
2018-12-24T13:33:45.957Z,5.13
2018-12-24T13:36:14.268Z,6.40
2018-12-24T13:38:42.556Z,7.73
2018-12-24T13:41:10.905Z,4.37
2018-12-24T13:43:39.287Z,7.77
2018-12-24T13:46:08.177Z,6.53
2018-12-24T13:48:36.828Z,7.20
2018-12-24T13:51:05.113Z,5.57
2018-12-24T13:54:14.493Z,4.20
2018-12-24T13:56:42.689Z,6.20
2018-12-24T13:59:10.864Z,10.53
2018-12-24T14:01:39.080Z,7.60
2018-12-24T14:04:07.298Z,7.80
2018-12-24T14:06:35.540Z,7.57
2018-12-24T14:09:05.248Z,8.53
2018-12-24T14:11:33.473Z,6.17
2018-12-24T14:14:01.646Z,5.83
2018-12-24T14:16:29.853Z,5.93
2018-12-24T14:18:58.067Z,6.93
2018-12-24T14:21:26.228Z,8.43
2018-12-24T14:23:54.441Z,8.40
2018-12-24T14:26:22.638Z,7.30
2018-12-24T14:28:51.013Z,7.40
2018-12-24T14:31:19.192Z,5.70
2018-12-24T14:33:47.436Z,7.10
2018-12-24T14:36:15.645Z,7.33
2018-12-24T14:38:43.853Z,7.57
2018-12-24T14:41:12.020Z,5.90
2018-12-24T14:43:40.192Z,7.53
2018-12-24T14:46:08.377Z,7.73
2018-12-24T14:48:36.548Z,7.40
2018-12-24T14:51:04.761Z,6.90
2018-12-24T14:53:32.960Z,4.73
2018-12-24T14:56:01.140Z,9.00
2018-12-24T14:58:30.526Z,5.83
2018-12-24T15:00:58.731Z,4.97
2018-12-24T15:03:26.988Z,6.73
2018-12-24T15:05:55.156Z,6.20
2018-12-24T15:08:23.348Z,5.00
2018-12-24T15:10:51.549Z,5.77
2018-12-24T15:13:19.756Z,4.63
2018-12-24T15:15:47.970Z,4.77
2018-12-24T15:18:16.177Z,6.53
2018-12-24T15:20:44.353Z,7.67
2018-12-24T15:23:12.581Z,5.50
2018-12-24T15:25:40.781Z,7.20
2018-12-24T15:28:08.989Z,6.77
2018-12-24T15:30:37.229Z,6.63
2018-12-24T15:33:05.430Z,5.80
2018-12-24T15:35:33.688Z,7.50
2018-12-24T15:38:01.899Z,7.10
2018-12-24T15:40:30.177Z,6.83
2018-12-24T15:42:58.389Z,7.27
2018-12-24T15:45:26.589Z,8.30
2018-12-24T15:47:54.797Z,7.80
2018-12-24T15:50:23.071Z,6.23
2018-12-24T15:52:51.269Z,7.50
2018-12-24T15:55:19.533Z,11.80
2018-12-24T15:57:47.877Z,7.47
2018-12-24T16:00:16.091Z,6.77
2018-12-24T16:02:44.373Z,8.60
2018-12-24T16:05:12.550Z,8.83
2018-12-24T16:07:40.767Z,9.10
2018-12-24T16:10:08.940Z,8.33
2018-12-24T16:12:37.152Z,7.07
2018-12-24T16:15:05.864Z,8.27
2018-12-24T16:17:34.147Z,10.13
2018-12-24T16:20:02.313Z,8.27
2018-12-24T16:22:30.498Z,8.40
2018-12-24T16:24:58.687Z,10.63
2018-12-24T16:27:26.863Z,8.47
2018-12-24T16:29:55.041Z,8.87
2018-12-24T16:32:23.223Z,9.17
2018-12-24T16:34:51.438Z,9.27
2018-12-24T16:37:19.616Z,9.90
2018-12-24T16:39:47.857Z,6.97
2018-12-24T16:42:16.073Z,7.73
2018-12-24T16:44:44.277Z,7.33
2018-12-24T16:47:12.452Z,12.37
2018-12-24T16:49:40.670Z,9.47
2018-12-24T16:52:08.860Z,9.60
2018-12-24T16:54:37.052Z,8.57
2018-12-24T16:57:05.261Z,10.67
2018-12-24T16:59:33.464Z,10.50
2018-12-24T17:02:01.726Z,10.83
2018-12-24T17:04:29.936Z,10.13
2018-12-24T17:06:58.136Z,9.17
2018-12-24T17:09:26.350Z,8.70
2018-12-24T17:11:54.608Z,10.00
2018-12-24T17:14:22.792Z,12.17
2018-12-24T17:16:51.021Z,11.30
2018-12-24T17:19:19.205Z,11.60
2018-12-24T17:21:47.384Z,11.00
2018-12-24T17:24:15.592Z,10.57
2018-12-24T17:26:43.797Z,11.80
2018-12-24T17:29:12.013Z,10.53
2018-12-24T17:31:40.241Z,11.70
2018-12-24T17:34:08.416Z,10.00
2018-12-24T17:36:36.633Z,11.50
2018-12-24T17:39:06.150Z,9.97
2018-12-24T17:41:34.332Z,10.03
2018-12-24T17:44:02.630Z,10.10
2018-12-24T17:46:30.819Z,9.30
2018-12-24T17:48:59.023Z,9.00
2018-12-24T17:51:27.192Z,9.27
2018-12-24T17:53:55.413Z,10.93
2018-12-24T17:56:23.613Z,12.00
2018-12-24T17:58:51.805Z,13.07
2018-12-24T18:01:20.014Z,10.33
2018-12-24T18:03:48.228Z,13.50
2018-12-24T18:06:16.420Z,10.00
2018-12-24T18:08:44.673Z,10.47
2018-12-24T18:11:12.883Z,16.50
2018-12-24T18:13:41.136Z,13.80
2018-12-24T18:16:09.315Z,13.50
2018-12-24T18:18:37.508Z,15.23
2018-12-24T18:21:05.722Z,12.10
2018-12-24T18:23:34.026Z,15.70
2018-12-24T18:26:02.240Z,11.57
2018-12-24T18:28:30.445Z,17.27
2018-12-24T18:30:58.670Z,16.07
2018-12-24T18:33:26.914Z,15.80
2018-12-24T18:35:55.124Z,15.30
2018-12-24T18:38:23.306Z,17.53
2018-12-24T18:40:51.688Z,16.90
2018-12-24T18:43:19.863Z,14.37
2018-12-24T18:45:48.068Z,18.93
2018-12-24T18:48:16.294Z,13.00
2018-12-24T18:50:44.501Z,20.03
2018-12-24T18:53:12.711Z,16.10
2018-12-24T18:55:40.948Z,17.60
2018-12-24T18:58:09.162Z,13.77
2018-12-24T19:00:38.269Z,13.37
2018-12-24T19:03:06.455Z,14.47
2018-12-24T19:05:34.671Z,13.90
2018-12-24T19:08:02.912Z,14.77
2018-12-24T19:10:31.124Z,12.63
2018-12-24T19:12:59.312Z,12.40
2018-12-24T19:15:27.637Z,12.10
2018-12-24T19:17:55.840Z,13.80
2018-12-24T19:20:24.016Z,14.43
2018-12-24T19:22:52.236Z,16.07
2018-12-24T19:25:20.473Z,16.40
2018-12-24T19:27:48.685Z,19.47
2018-12-24T19:30:16.905Z,11.63
2018-12-24T19:32:45.181Z,11.93
2018-12-24T19:35:13.378Z,14.70
2018-12-24T19:37:41.693Z,15.13
2018-12-24T19:40:09.893Z,7.90
2018-12-24T19:42:38.063Z,15.17
2018-12-24T19:45:06.272Z,13.30
2018-12-24T19:47:34.493Z,9.40
2018-12-24T19:50:02.770Z,16.40
2018-12-24T19:52:30.980Z,15.83
2018-12-24T19:54:59.201Z,15.30
2018-12-24T19:57:27.418Z,15.00
2018-12-24T19:59:55.596Z,14.13
2018-12-24T20:02:23.772Z,15.47
2018-12-24T20:04:51.976Z,15.97
2018-12-24T20:07:20.156Z,15.57
2018-12-24T20:09:48.362Z,15.67
2018-12-24T20:12:16.577Z,13.93
2018-12-24T20:14:44.760Z,14.90
2018-12-24T20:17:12.983Z,16.53
2018-12-24T20:19:41.202Z,11.63
2018-12-24T20:22:09.409Z,16.57
2018-12-24T20:24:37.590Z,13.83
2018-12-24T20:27:05.864Z,15.17
2018-12-24T20:29:34.145Z,14.47
2018-12-24T20:32:02.999Z,12.40
2018-12-24T20:34:31.281Z,15.20
2018-12-24T20:36:59.531Z,11.13
2018-12-24T20:39:27.740Z,15.80
2018-12-24T20:41:56.009Z,14.87
2018-12-24T20:44:24.306Z,12.67
2018-12-24T20:46:52.522Z,14.60
2018-12-24T20:49:20.910Z,15.47
2018-12-24T20:51:49.124Z,14.07
2018-12-24T20:54:17.379Z,13.03
2018-12-24T20:56:45.550Z,13.60
2018-12-24T20:59:13.732Z,16.37
2018-12-24T21:01:41.924Z,13.60
2018-12-24T21:04:10.139Z,16.10
2018-12-24T21:06:38.400Z,17.37
2018-12-24T21:09:06.891Z,14.87
2018-12-24T21:11:35.127Z,14.53
2018-12-24T21:14:03.325Z,13.60
2018-12-24T21:16:31.504Z,15.13
2018-12-24T21:18:59.759Z,11.57
2018-12-24T21:21:28.105Z,14.70
2018-12-24T21:23:56.296Z,18.37
2018-12-24T21:26:24.500Z,13.57
2018-12-24T21:28:52.736Z,15.50
2018-12-24T21:31:20.916Z,16.40
2018-12-24T21:33:49.103Z,14.80
2018-12-24T21:36:17.313Z,14.50
2018-12-24T21:38:45.496Z,15.60
2018-12-24T21:41:13.730Z,15.80
2018-12-24T21:43:41.945Z,17.03
2018-12-24T21:46:10.120Z,15.33
2018-12-24T21:48:38.312Z,18.27
2018-12-24T21:51:06.517Z,18.07
2018-12-24T21:53:34.734Z,18.27
2018-12-24T21:56:02.900Z,17.70
2018-12-24T21:58:31.109Z,17.47
2018-12-24T22:00:59.345Z,19.63
2018-12-24T22:03:27.520Z,15.30
2018-12-24T22:05:55.727Z,15.67
2018-12-24T22:08:23.944Z,17.70
2018-12-24T22:10:52.159Z,17.50
2018-12-24T22:13:20.436Z,15.57
2018-12-24T22:15:48.641Z,15.00
2018-12-24T22:18:16.825Z,19.47
2018-12-24T22:20:45.011Z,17.43
2018-12-24T22:23:13.221Z,16.17
2018-12-24T22:25:41.422Z,18.20
2018-12-24T22:28:09.603Z,17.90
2018-12-24T22:30:37.817Z,14.40
2018-12-24T22:33:05.996Z,20.77
2018-12-24T22:35:34.206Z,16.13
2018-12-24T22:38:02.454Z,17.37
2018-12-24T22:40:31.556Z,14.20
2018-12-24T22:42:59.745Z,16.67
2018-12-24T22:45:27.961Z,15.20
2018-12-24T22:47:56.136Z,16.30
2018-12-24T22:50:24.353Z,14.20
2018-12-24T22:52:52.636Z,14.63
2018-12-24T22:55:20.827Z,17.03
2018-12-24T22:57:49.025Z,16.37
2018-12-24T23:00:18.857Z,18.53
2018-12-24T23:02:47.069Z,20.03
2018-12-24T23:05:15.273Z,13.37
2018-12-24T23:07:43.498Z,14.60
2018-12-24T23:10:11.707Z,15.70
2018-12-24T23:12:39.879Z,20.53
2018-12-24T23:15:08.144Z,17.53
2018-12-24T23:17:36.369Z,16.77
2018-12-24T23:20:04.565Z,18.30
2018-12-24T23:22:32.748Z,18.23
2018-12-24T23:25:00.931Z,15.10
2018-12-24T23:27:29.105Z,19.47
2018-12-24T23:29:57.322Z,13.60
2018-12-24T23:32:25.526Z,13.00
2018-12-24T23:34:53.748Z,15.30
2018-12-24T23:37:21.924Z,19.77
2018-12-24T23:39:50.121Z,19.80
2018-12-24T23:42:18.337Z,15.27
2018-12-24T23:44:46.516Z,16.80
2018-12-24T23:47:14.771Z,15.30
2018-12-24T23:49:42.945Z,14.33
2018-12-24T23:52:11.152Z,13.70
2018-12-24T23:54:39.341Z,16.23
2018-12-24T23:57:07.572Z,15.00
2018-12-24T23:59:35.773Z,14.20
